Glens Falls, NY

1:38 PM EDT on July 07, 2015 (GMT -0400)
Glens Falls, NY | | Change Station
CLOSE
Current Station
Personal Weather Station
Location: Glens Falls, NY
Elevation: 331 ft
Nearby Weather Stations

Elev 331 ft 43.31 °N, 73.64 °W | Updated 1 minute ago

Mostly Cloudy
Mostly Cloudy
85.3 °F
Feels Like 93 °F
N
6.8
Wind Variable Wind from SSE

Today
High -- | Low -- °F
--% Chance of Precip.
Yesterday
High -- | Low -- °F
Precip. -- in
5:21 AM 8:37 PM
Waning Gibbous, 63% visible
Pressure 29.95 in
Visibility 10.0 miles
Clouds Mostly Cloudy 1800 ft
Mostly Cloudy 2500 ft
Heat Index 93 °F
Dew Point 74 °F
Humidity 69%
Rainfall 0.00 in
Snow Depth Not available.
UV 6 out of 12
Pollen 3.00 out of 12
Air Quality Not available.
Flu Activity Not available.
SPECI KGFL 071715Z AUTO 18009KT 10SM BKN018 BKN025 26/22 A2995 RMK AO2 T02610217

More Conditions Fewer Conditions

Pressure 29.95 in
Visibility 10.0 miles
Clouds Mostly Cloudy 1800 ft
Mostly Cloudy 2500 ft
Heat Index 93 °F
Dew Point 74 °F
Humidity 69%
Rainfall 0.00 in
Snow Depth Not available.
UV 6 out of 12
Pollen 3.00 out of 12
Air Quality Not available.
Flu Activity Not available.
SPECI KGFL 071715Z AUTO 18009KT 10SM BKN018 BKN025 26/22 A2995 RMK AO2 T02610217

More Conditions Fewer Conditions

10-Day Weather Forecast

×

Almanac

Astronomy

Jul. 07, 2015 Rise Set
Actual Time
Civil Twilight
Nautical Twilight
Astronomical Twilight
Moon
Length of Visible Light
Length of Day
Tomorrow will be .
, % of the Moon is Illuminated

Today's Extremes

State Highs State Lows

Community

WunderPhotos

Upload Photos

1,835,858 photos uploaded!

WunderBlogs® & News

Nearby

Air Quality

  Air Quality AQ Index Pollutant
Not available.

Snow Depth

Station Depth Elevation

Earthquake Activity

City Distance Mag. Time & Date
Minimum magnitude displayed is 2.5.

Coastal Water Temperatures

Place Temperature

Stations

Nearby Weather Stations

Station Location Temp. Windchill Dew Point Humidity Wind Precip. Elev Updated Type